^^
Grace C. Lehan Memorial Weather Station Historical Data
Daily Summary for October 06, 2022 Units:  Metric    English   Both
Daily Weekly Monthly Yearly
  High: Low: Average:
Temperature: 15.4 °C 14.1 °C 15 °C
Dew Point: 14.8 °C 13.4 °C 14.3 °C
Humidity: 96% 95% 96%
Wind Speed: 6.3km/h 0km/h 0.5km/h
Wind Gust: 27.4km/h - -
Wind- - West
Pressure: 1011.4 hPa 1011.1 hPa -
Precipitation: 0 mm    
 
 
Tabular Data for October 06, 2022
Time Temperature Dew Point Pressure Wind Wind Speed Wind Gust Humidity Rainfall Rate (Hourly) solar
00:04 15.4 °C 14.8 °C 1011.4 hPa NW 2.7 km/h 9.7 km/h 96% 1.78 mm 0 W/m2
00:09 15.4 °C 14.8 °C 1011.4 hPa NNW 2.4 km/h 14.5 km/h 96% 1.78 mm 0 W/m2
00:14 15.4 °C 14.8 °C 1011.4 hPa NW 6.3 km/h 20.9 km/h 96% 1.78 mm 0 W/m2
00:19 15.4 °C 14.8 °C 1011.4 hPa NNE 1.3 km/h 20.9 km/h 96% 1.78 mm 0 W/m2
00:24 15.4 °C 14.8 °C 1011.4 hPa North 2.4 km/h 20.9 km/h 96% 1.78 mm 0 W/m2
00:29 15.4 °C 14.8 °C 1011.4 hPa NW 3.1 km/h 27.4 km/h 96% 1.78 mm 0 W/m2
00:34 15.4 °C 14.8 °C 1011.4 hPa NNE 0.3 km/h 27.4 km/h 96% 1.78 mm 0 W/m2
00:39 15.4 °C 14.8 °C 1011.4 hPa NNW 0.2 km/h 4.8 km/h 96% 1.78 mm 0 W/m2
00:44 15.4 °C 14.8 °C 1011.4 hPa NNW 1 km/h 8 km/h 96% 1.78 mm 0 W/m2
00:49 15.4 °C 14.8 °C 1011.4 hPa NW 0.2 km/h 8 km/h 96% 1.78 mm 0 W/m2
00:54 15.4 °C 14.8 °C 1011.4 hPa NW 1.1 km/h 9.7 km/h 96% 1.78 mm 0 W/m2
00:59 15.4 °C 14.8 °C 1011.4 hPa Calm   9.7 km/h 96% 1.78 mm 0 W/m2
01:04 15.4 °C 14.8 °C 1011.4 hPa NNW 0.8 km/h 11.3 km/h 96% 1.78 mm 0 W/m2
01:09 15.4 °C 14.8 °C 1011.4 hPa NW 1.4 km/h 16.1 km/h 96% 0 mm 0 W/m2
01:14 15.4 °C 14.8 °C 1011.4 hPa WNW 0.2 km/h 16.1 km/h 96% 0 mm 0 W/m2
01:19 15.4 °C 14.8 °C 1011.4 hPa Calm   16.1 km/h 96% 0 mm 0 W/m2
01:24 15.4 °C 14.8 °C 1011.4 hPa Calm   16.1 km/h 96% 0 mm 0 W/m2
01:29 15.4 °C 14.8 °C 1011.4 hPa Calm   16.1 km/h 96% 0 mm 0 W/m2
01:34 15.4 °C 14.8 °C 1011.4 hPa NW 0.2 km/h 16.1 km/h 96% 0 mm 0 W/m2
01:39 15.4 °C 14.8 °C 1011.4 hPa NW 0.2 km/h 4.8 km/h 96% 0 mm 0 W/m2
01:44 15.4 °C 14.8 °C 1011.4 hPa NNW 0.3 km/h 4.8 km/h 96% 0 mm 0 W/m2
01:49 15.4 °C 14.8 °C 1011.4 hPa NNE 0.2 km/h 4.8 km/h 96% 0 mm 0 W/m2
01:54 15.4 °C 14.8 °C 1011.4 hPa Calm   4.8 km/h 96% 0 mm 0 W/m2
01:59 15.4 °C 14.8 °C 1011.4 hPa Calm   4.8 km/h 96% 0 mm 0 W/m2
02:04 15.4 °C 14.7 °C 1011.4 hPa Calm   4.8 km/h 96% 0 mm 0 W/m2
02:09 15.3 °C 14.7 °C 1011.4 hPa Calm     96% 0 mm 0 W/m2
02:14 15.3 °C 14.7 °C 1011.4 hPa Calm     96% 0 mm 0 W/m2
02:19 15.2 °C 14.6 °C 1011.4 hPa Calm     96% 0 mm 0 W/m2
02:24 15.2 °C 14.6 °C 1011.4 hPa Calm     96% 0 mm 0 W/m2
02:29 15.1 °C 14.5 °C 1011.4 hPa Calm     96% 0 mm 0 W/m2
02:34 15.1 °C 14.4 °C 1011.4 hPa Calm     96% 0 mm 0 W/m2
02:39 14.9 °C 14.3 °C 1011.4 hPa Calm     95.6% 0 mm 0 W/m2
02:44 14.9 °C 14.1 °C 1011.4 hPa Calm     95% 0 mm 0 W/m2
02:49 14.8 °C 14.1 °C 1011.4 hPa Calm     95.2% 0 mm 0 W/m2
02:54 14.8 °C 14.1 °C 1011.4 hPa Calm     96% 0 mm 0 W/m2
02:59 14.7 °C 14.1 °C 1011.4 hPa Calm     95.8% 0 mm 0 W/m2
03:04 14.6 °C 13.8 °C 1011.4 hPa Calm     95% 0 mm 0 W/m2
03:09 14.6 °C 13.8 °C 1011.4 hPa Calm     95% 0 mm 0 W/m2
03:14 14.5 °C 13.8 °C 1011.4 hPa Calm     95.7% 0 mm 0 W/m2
03:19 14.4 °C 13.8 °C 1011.4 hPa Calm     96% 0 mm 0 W/m2
03:24 14.4 °C 13.7 °C 1011.4 hPa Calm     96% 0 mm 0 W/m2
03:29 14.3 °C 13.6 °C 1011.1 hPa Calm     95.3% 0 mm 0 W/m2
03:34 14.2 °C 13.4 °C 1011.4 hPa Calm     95% 0 mm 0 W/m2
03:39 14.2 °C 13.4 °C 1011.4 hPa Calm     95.1% 0 mm 0 W/m2
03:44 14.1 °C 13.5 °C 1011.1 hPa Calm     96% 0 mm 0 W/m2
03:49 14.2 °C 13.6 °C 1011.1 hPa Calm     96% 0 mm 0 W/m2
03:54 14.2 °C 13.6 °C 1011.4 hPa Calm     96% 0 mm 0 W/m2
03:59 14.2 °C 13.6 °C 1011.4 hPa Calm     96% 0 mm 0 W/m2
04:04 14.2 °C 13.6 °C 1011.4 hPa Calm     96% 0 mm 0 W/m2
04:09 14.2 °C 13.5 °C 1011.4 hPa Calm     96% 0 mm 0 W/m2
04:13 14.1 °C 13.4 °C 1011.4 hPa Calm     96% 0 mm 0 W/m2
Hartford County Weather
Compliments of Weather Underground - 4 mb